sensor_id;sensor_type;location;lat;lon;timestamp;temperature;humidity
29413;DHT22;16389;50.126;8.450;2024-02-28T00:02:05;3.20;99.90
29413;DHT22;16389;50.126;8.450;2024-02-28T00:04:31;3.20;99.90
29413;DHT22;16389;50.126;8.450;2024-02-28T00:06:56;3.10;99.90
29413;DHT22;16389;50.126;8.450;2024-02-28T00:09:23;3.00;99.90
29413;DHT22;16389;50.126;8.450;2024-02-28T00:11:48;3.00;99.90
29413;DHT22;16389;50.126;8.450;2024-02-28T00:14:14;2.90;99.90
29413;DHT22;16389;50.126;8.450;2024-02-28T00:16:41;2.80;99.90
29413;DHT22;16389;50.126;8.450;2024-02-28T00:19:07;2.80;99.90
29413;DHT22;16389;50.126;8.450;2024-02-28T00:21:32;2.80;99.90
29413;DHT22;16389;50.126;8.450;2024-02-28T00:23:58;2.70;99.90
29413;DHT22;16389;50.126;8.450;2024-02-28T00:26:23;2.70;99.90
29413;DHT22;16389;50.126;8.450;2024-02-28T00:28:49;2.70;99.90
29413;DHT22;16389;50.126;8.450;2024-02-28T00:31:15;2.70;99.90
29413;DHT22;16389;50.126;8.450;2024-02-28T00:33:40;2.60;99.90
29413;DHT22;16389;50.126;8.450;2024-02-28T00:36:06;2.60;99.90
29413;DHT22;16389;50.126;8.450;2024-02-28T00:38:32;2.60;99.90
29413;DHT22;16389;50.126;8.450;2024-02-28T00:40:57;2.60;99.90
29413;DHT22;16389;50.126;8.450;2024-02-28T00:43:23;2.50;99.90
29413;DHT22;16389;50.126;8.450;2024-02-28T00:45:48;2.50;99.90
29413;DHT22;16389;50.126;8.450;2024-02-28T00:48:14;2.50;99.90
29413;DHT22;16389;50.126;8.450;2024-02-28T00:50:40;2.50;99.90
29413;DHT22;16389;50.126;8.450;2024-02-28T00:53:05;2.40;99.90
29413;DHT22;16389;50.126;8.450;2024-02-28T00:55:31;2.40;99.90
29413;DHT22;16389;50.126;8.450;2024-02-28T00:57:56;2.40;99.90
29413;DHT22;16389;50.126;8.450;2024-02-28T01:02:48;2.40;99.90
29413;DHT22;16389;50.126;8.450;2024-02-28T01:05:13;2.30;99.90
29413;DHT22;16389;50.126;8.450;2024-02-28T01:07:39;2.20;99.90
29413;DHT22;16389;50.126;8.450;2024-02-28T01:10:06;2.20;99.90
29413;DHT22;16389;50.126;8.450;2024-02-28T01:12:31;2.20;99.90
29413;DHT22;16389;50.126;8.450;2024-02-28T01:14:57;2.20;99.90
29413;DHT22;16389;50.126;8.450;2024-02-28T01:17:22;2.20;99.90
29413;DHT22;16389;50.126;8.450;2024-02-28T01:19:48;2.20;99.90
29413;DHT22;16389;50.126;8.450;2024-02-28T01:22:14;2.20;99.90
29413;DHT22;16389;50.126;8.450;2024-02-28T01:24:39;2.20;99.90
29413;DHT22;16389;50.126;8.450;2024-02-28T01:27:05;2.20;99.90
29413;DHT22;16389;50.126;8.450;2024-02-28T01:29:31;2.10;99.90
29413;DHT22;16389;50.126;8.450;2024-02-28T01:31:56;2.20;99.90
29413;DHT22;16389;50.126;8.450;2024-02-28T01:34:22;2.10;99.90
29413;DHT22;16389;50.126;8.450;2024-02-28T01:36:47;2.10;99.90
29413;DHT22;16389;50.126;8.450;2024-02-28T01:39:13;2.10;99.90
29413;DHT22;16389;50.126;8.450;2024-02-28T01:41:41;2.10;99.90
29413;DHT22;16389;50.126;8.450;2024-02-28T01:44:08;2.10;99.90
29413;DHT22;16389;50.126;8.450;2024-02-28T01:46:34;2.10;99.90
29413;DHT22;16389;50.126;8.450;2024-02-28T01:49:01;2.10;99.90
29413;DHT22;16389;50.126;8.450;2024-02-28T01:51:27;2.10;99.90
29413;DHT22;16389;50.126;8.450;2024-02-28T01:53:54;2.10;99.90
29413;DHT22;16389;50.126;8.450;2024-02-28T01:56:20;2.00;99.90
29413;DHT22;16389;50.126;8.450;2024-02-28T01:58:50;2.00;99.90
29413;DHT22;16389;50.126;8.450;2024-02-28T02:01:16;2.00;99.90
29413;DHT22;16389;50.126;8.450;2024-02-28T02:03:43;2.10;99.90
29413;DHT22;16389;50.126;8.450;2024-02-28T02:06:09;2.10;99.90
29413;DHT22;16389;50.126;8.450;2024-02-28T02:08:36;2.10;99.90
29413;DHT22;16389;50.126;8.450;2024-02-28T02:11:02;2.10;99.90
29413;DHT22;16389;50.126;8.450;2024-02-28T02:13:28;2.20;99.90
29413;DHT22;16389;50.126;8.450;2024-02-28T02:15:54;2.20;99.90
29413;DHT22;16389;50.126;8.450;2024-02-28T02:18:19;2.30;99.90
29413;DHT22;16389;50.126;8.450;2024-02-28T02:20:53;2.30;99.90
29413;DHT22;16389;50.126;8.450;2024-02-28T02:23:19;2.30;99.90
29413;DHT22;16389;50.126;8.450;2024-02-28T02:25:46;2.30;99.90
29413;DHT22;16389;50.126;8.450;2024-02-28T02:28:12;2.30;99.90
29413;DHT22;16389;50.126;8.450;2024-02-28T02:30:38;2.30;99.90
29413;DHT22;16389;50.126;8.450;2024-02-28T02:33:07;2.30;99.90
29413;DHT22;16389;50.126;8.450;2024-02-28T02:35:34;2.30;99.90
29413;DHT22;16389;50.126;8.450;2024-02-28T02:38:00;2.20;99.90
29413;DHT22;16389;50.126;8.450;2024-02-28T02:40:26;2.20;99.90
29413;DHT22;16389;50.126;8.450;2024-02-28T02:42:51;2.10;99.90
29413;DHT22;16389;50.126;8.450;2024-02-28T02:45:17;2.10;99.90
29413;DHT22;16389;50.126;8.450;2024-02-28T02:47:42;2.00;99.90
29413;DHT22;16389;50.126;8.450;2024-02-28T02:50:11;1.90;99.90
29413;DHT22;16389;50.126;8.450;2024-02-28T02:52:37;1.80;99.90
29413;DHT22;16389;50.126;8.450;2024-02-28T02:55:03;1.90;99.90
29413;DHT22;16389;50.126;8.450;2024-02-28T02:57:29;1.80;99.90
29413;DHT22;16389;50.126;8.450;2024-02-28T02:59:57;1.80;99.90
29413;DHT22;16389;50.126;8.450;2024-02-28T03:02:22;1.80;99.90
29413;DHT22;16389;50.126;8.450;2024-02-28T03:04:48;1.70;99.90
29413;DHT22;16389;50.126;8.450;2024-02-28T03:07:14;1.70;99.90
29413;DHT22;16389;50.126;8.450;2024-02-28T03:09:40;1.60;99.90
29413;DHT22;16389;50.126;8.450;2024-02-28T03:12:06;1.60;99.90
29413;DHT22;16389;50.126;8.450;2024-02-28T03:14:32;1.60;99.90
29413;DHT22;16389;50.126;8.450;2024-02-28T03:16:58;1.50;99.90
29413;DHT22;16389;50.126;8.450;2024-02-28T03:19:23;1.50;99.90
29413;DHT22;16389;50.126;8.450;2024-02-28T03:21:49;1.40;99.90
29413;DHT22;16389;50.126;8.450;2024-02-28T03:24:15;1.40;99.90
29413;DHT22;16389;50.126;8.450;2024-02-28T03:26:40;1.40;99.90
29413;DHT22;16389;50.126;8.450;2024-02-28T03:29:06;1.30;99.90
29413;DHT22;16389;50.126;8.450;2024-02-28T03:31:31;1.30;99.90
29413;DHT22;16389;50.126;8.450;2024-02-28T03:33:57;1.20;99.90
29413;DHT22;16389;50.126;8.450;2024-02-28T03:36:23;1.20;99.90
29413;DHT22;16389;50.126;8.450;2024-02-28T03:38:48;1.20;99.90
29413;DHT22;16389;50.126;8.450;2024-02-28T03:41:14;1.10;99.90
29413;DHT22;16389;50.126;8.450;2024-02-28T03:43:39;1.10;99.90
29413;DHT22;16389;50.126;8.450;2024-02-28T03:46:05;1.10;99.90
29413;DHT22;16389;50.126;8.450;2024-02-28T03:48:31;1.10;99.90
29413;DHT22;16389;50.126;8.450;2024-02-28T03:50:56;1.00;99.90
29413;DHT22;16389;50.126;8.450;2024-02-28T03:53:22;1.00;99.90
29413;DHT22;16389;50.126;8.450;2024-02-28T03:55:47;1.00;99.90
29413;DHT22;16389;50.126;8.450;2024-02-28T03:58:13;1.00;99.90
29413;DHT22;16389;50.126;8.450;2024-02-28T04:00:38;1.00;99.90
29413;DHT22;16389;50.126;8.450;2024-02-28T04:03:05;1.10;99.90
29413;DHT22;16389;50.126;8.450;2024-02-28T04:05:31;1.20;99.90
29413;DHT22;16389;50.126;8.450;2024-02-28T04:07:56;1.10;99.90
29413;DHT22;16389;50.126;8.450;2024-02-28T04:10:22;1.10;99.90
29413;DHT22;16389;50.126;8.450;2024-02-28T04:12:47;1.10;99.90
29413;DHT22;16389;50.126;8.450;2024-02-28T04:15:14;1.10;99.90
29413;DHT22;16389;50.126;8.450;2024-02-28T04:17:40;1.10;99.90
29413;DHT22;16389;50.126;8.450;2024-02-28T04:20:12;1.00;99.90
29413;DHT22;16389;50.126;8.450;2024-02-28T04:22:38;0.90;99.90
29413;DHT22;16389;50.126;8.450;2024-02-28T04:25:05;0.80;99.90
29413;DHT22;16389;50.126;8.450;2024-02-28T04:27:32;0.80;99.90
29413;DHT22;16389;50.126;8.450;2024-02-28T04:29:57;0.80;99.90
29413;DHT22;16389;50.126;8.450;2024-02-28T04:32:23;0.80;99.90
29413;DHT22;16389;50.126;8.450;2024-02-28T04:34:49;0.80;99.90
29413;DHT22;16389;50.126;8.450;2024-02-28T04:37:15;0.70;99.90
29413;DHT22;16389;50.126;8.450;2024-02-28T04:39:40;0.80;99.90
29413;DHT22;16389;50.126;8.450;2024-02-28T04:42:06;0.80;99.90
29413;DHT22;16389;50.126;8.450;2024-02-28T04:44:32;0.70;99.90
29413;DHT22;16389;50.126;8.450;2024-02-28T04:46:57;0.70;99.90
29413;DHT22;16389;50.126;8.450;2024-02-28T04:49:23;0.70;99.90
29413;DHT22;16389;50.126;8.450;2024-02-28T04:51:48;0.70;99.90
29413;DHT22;16389;50.126;8.450;2024-02-28T04:54:14;0.70;99.90
29413;DHT22;16389;50.126;8.450;2024-02-28T04:56:41;0.60;99.90
29413;DHT22;16389;50.126;8.450;2024-02-28T04:59:08;0.60;99.90
29413;DHT22;16389;50.126;8.450;2024-02-28T05:01:33;0.60;99.90
29413;DHT22;16389;50.126;8.450;2024-02-28T05:04:00;0.60;99.90
29413;DHT22;16389;50.126;8.450;2024-02-28T05:06:26;0.70;99.90
29413;DHT22;16389;50.126;8.450;2024-02-28T05:08:51;0.70;99.90
29413;DHT22;16389;50.126;8.450;2024-02-28T05:11:17;0.70;99.90
29413;DHT22;16389;50.126;8.450;2024-02-28T05:13:42;0.70;99.90
29413;DHT22;16389;50.126;8.450;2024-02-28T05:16:14;0.60;99.90
29413;DHT22;16389;50.126;8.450;2024-02-28T05:18:40;0.60;99.90
29413;DHT22;16389;50.126;8.450;2024-02-28T05:21:06;0.60;99.90
29413;DHT22;16389;50.126;8.450;2024-02-28T05:23:31;0.60;99.90
29413;DHT22;16389;50.126;8.450;2024-02-28T05:25:57;0.50;99.90
29413;DHT22;16389;50.126;8.450;2024-02-28T05:28:23;0.50;99.90
29413;DHT22;16389;50.126;8.450;2024-02-28T05:30:50;0.50;99.90
29413;DHT22;16389;50.126;8.450;2024-02-28T05:33:15;0.50;99.90
29413;DHT22;16389;50.126;8.450;2024-02-28T05:35:41;0.50;99.90
29413;DHT22;16389;50.126;8.450;2024-02-28T05:38:07;0.50;99.90
29413;DHT22;16389;50.126;8.450;2024-02-28T05:40:32;0.50;99.90
29413;DHT22;16389;50.126;8.450;2024-02-28T05:42:58;0.50;99.90
29413;DHT22;16389;50.126;8.450;2024-02-28T05:45:23;0.50;99.90
29413;DHT22;16389;50.126;8.450;2024-02-28T05:47:49;0.50;99.90
29413;DHT22;16389;50.126;8.450;2024-02-28T05:50:15;0.50;99.90
29413;DHT22;16389;50.126;8.450;2024-02-28T05:52:44;0.50;99.90
29413;DHT22;16389;50.126;8.450;2024-02-28T05:55:09;0.50;99.90
29413;DHT22;16389;50.126;8.450;2024-02-28T05:57:35;0.50;99.90
29413;DHT22;16389;50.126;8.450;2024-02-28T06:00:01;0.50;99.90
29413;DHT22;16389;50.126;8.450;2024-02-28T06:02:30;0.50;99.90
29413;DHT22;16389;50.126;8.450;2024-02-28T06:04:55;0.60;99.90
29413;DHT22;16389;50.126;8.450;2024-02-28T06:07:21;0.60;99.90
29413;DHT22;16389;50.126;8.450;2024-02-28T06:09:47;0.60;99.90
29413;DHT22;16389;50.126;8.450;2024-02-28T06:12:12;0.60;99.90
29413;DHT22;16389;50.126;8.450;2024-02-28T06:14:38;0.70;99.90
29413;DHT22;16389;50.126;8.450;2024-02-28T06:17:03;0.70;99.90
29413;DHT22;16389;50.126;8.450;2024-02-28T06:19:29;0.80;99.90
29413;DHT22;16389;50.126;8.450;2024-02-28T06:21:54;0.90;99.90
29413;DHT22;16389;50.126;8.450;2024-02-28T06:24:20;0.90;99.90
29413;DHT22;16389;50.126;8.450;2024-02-28T06:26:46;0.90;99.90
29413;DHT22;16389;50.126;8.450;2024-02-28T06:29:13;0.90;99.90
29413;DHT22;16389;50.126;8.450;2024-02-28T06:31:39;1.00;99.90
29413;DHT22;16389;50.126;8.450;2024-02-28T06:34:05;1.10;99.90
29413;DHT22;16389;50.126;8.450;2024-02-28T06:36:32;1.10;99.90
29413;DHT22;16389;50.126;8.450;2024-02-28T06:38:58;1.20;99.90
29413;DHT22;16389;50.126;8.450;2024-02-28T06:41:23;1.20;99.90
29413;DHT22;16389;50.126;8.450;2024-02-28T06:43:49;1.30;99.90
29413;DHT22;16389;50.126;8.450;2024-02-28T06:46:14;1.40;99.90
29413;DHT22;16389;50.126;8.450;2024-02-28T06:48:40;1.50;99.90
29413;DHT22;16389;50.126;8.450;2024-02-28T06:51:06;1.60;99.90
29413;DHT22;16389;50.126;8.450;2024-02-28T06:53:31;1.70;99.90
29413;DHT22;16389;50.126;8.450;2024-02-28T06:55:57;1.70;99.90
29413;DHT22;16389;50.126;8.450;2024-02-28T06:58:22;1.80;99.90
29413;DHT22;16389;50.126;8.450;2024-02-28T07:00:51;2.00;99.90
29413;DHT22;16389;50.126;8.450;2024-02-28T07:03:17;2.10;99.90
29413;DHT22;16389;50.126;8.450;2024-02-28T07:05:42;2.20;99.90
29413;DHT22;16389;50.126;8.450;2024-02-28T07:08:08;2.30;99.90
29413;DHT22;16389;50.126;8.450;2024-02-28T07:10:36;2.30;99.90
29413;DHT22;16389;50.126;8.450;2024-02-28T07:13:02;2.30;99.90
29413;DHT22;16389;50.126;8.450;2024-02-28T07:15:27;2.30;99.90
29413;DHT22;16389;50.126;8.450;2024-02-28T07:17:53;2.30;99.90
29413;DHT22;16389;50.126;8.450;2024-02-28T07:20:19;2.30;99.90
29413;DHT22;16389;50.126;8.450;2024-02-28T07:22:45;2.30;99.90
29413;DHT22;16389;50.126;8.450;2024-02-28T07:25:11;2.30;99.90
29413;DHT22;16389;50.126;8.450;2024-02-28T07:27:37;2.30;99.90
29413;DHT22;16389;50.126;8.450;2024-02-28T07:30:03;2.40;99.90
29413;DHT22;16389;50.126;8.450;2024-02-28T07:32:29;2.40;99.90
29413;DHT22;16389;50.126;8.450;2024-02-28T07:35:00;2.50;99.90
29413;DHT22;16389;50.126;8.450;2024-02-28T07:37:25;2.50;99.90
29413;DHT22;16389;50.126;8.450;2024-02-28T07:39:51;2.50;99.90
29413;DHT22;16389;50.126;8.450;2024-02-28T07:42:17;2.50;99.90
29413;DHT22;16389;50.126;8.450;2024-02-28T07:44:43;2.60;99.90
29413;DHT22;16389;50.126;8.450;2024-02-28T07:47:08;2.60;99.90
29413;DHT22;16389;50.126;8.450;2024-02-28T07:49:34;2.60;99.90
29413;DHT22;16389;50.126;8.450;2024-02-28T07:51:59;2.70;99.90
29413;DHT22;16389;50.126;8.450;2024-02-28T07:54:26;2.70;99.90
29413;DHT22;16389;50.126;8.450;2024-02-28T07:56:52;2.80;99.90
29413;DHT22;16389;50.126;8.450;2024-02-28T07:59:18;2.90;99.90
29413;DHT22;16389;50.126;8.450;2024-02-28T08:01:44;3.10;99.90
29413;DHT22;16389;50.126;8.450;2024-02-28T08:04:10;3.40;99.90
29413;DHT22;16389;50.126;8.450;2024-02-28T08:06:36;3.60;99.90
29413;DHT22;16389;50.126;8.450;2024-02-28T08:09:01;3.80;99.90
29413;DHT22;16389;50.126;8.450;2024-02-28T08:11:29;4.10;99.90
29413;DHT22;16389;50.126;8.450;2024-02-28T08:13:55;4.40;99.90
29413;DHT22;16389;50.126;8.450;2024-02-28T08:16:21;4.60;99.90
29413;DHT22;16389;50.126;8.450;2024-02-28T08:18:46;4.90;99.90
29413;DHT22;16389;50.126;8.450;2024-02-28T08:21:12;5.20;99.90
29413;DHT22;16389;50.126;8.450;2024-02-28T08:23:38;5.50;99.90
29413;DHT22;16389;50.126;8.450;2024-02-28T08:26:03;5.80;99.90
29413;DHT22;16389;50.126;8.450;2024-02-28T08:28:29;6.00;99.90
29413;DHT22;16389;50.126;8.450;2024-02-28T08:30:55;6.30;99.90
29413;DHT22;16389;50.126;8.450;2024-02-28T08:33:20;6.40;99.90
29413;DHT22;16389;50.126;8.450;2024-02-28T08:35:46;6.60;99.90
29413;DHT22;16389;50.126;8.450;2024-02-28T08:38:12;6.90;99.90
29413;DHT22;16389;50.126;8.450;2024-02-28T08:40:37;7.10;99.90
29413;DHT22;16389;50.126;8.450;2024-02-28T08:43:03;7.10;99.90
29413;DHT22;16389;50.126;8.450;2024-02-28T08:45:29;7.20;99.90
29413;DHT22;16389;50.126;8.450;2024-02-28T08:47:54;7.00;99.90
29413;DHT22;16389;50.126;8.450;2024-02-28T08:50:20;7.10;99.90
29413;DHT22;16389;50.126;8.450;2024-02-28T08:52:45;7.20;99.90
29413;DHT22;16389;50.126;8.450;2024-02-28T08:55:11;7.50;99.90
29413;DHT22;16389;50.126;8.450;2024-02-28T08:57:37;7.60;99.90
29413;DHT22;16389;50.126;8.450;2024-02-28T09:00:02;7.60;99.90
29413;DHT22;16389;50.126;8.450;2024-02-28T09:02:28;7.60;99.90
29413;DHT22;16389;50.126;8.450;2024-02-28T09:04:54;7.60;99.90
29413;DHT22;16389;50.126;8.450;2024-02-28T09:07:22;7.50;99.90
29413;DHT22;16389;50.126;8.450;2024-02-28T09:09:48;7.50;99.90
29413;DHT22;16389;50.126;8.450;2024-02-28T09:12:14;7.40;99.90
29413;DHT22;16389;50.126;8.450;2024-02-28T09:14:40;7.50;99.90
29413;DHT22;16389;50.126;8.450;2024-02-28T09:17:06;7.60;99.90
29413;DHT22;16389;50.126;8.450;2024-02-28T09:19:32;7.80;99.90
29413;DHT22;16389;50.126;8.450;2024-02-28T09:21:58;8.00;99.90
29413;DHT22;16389;50.126;8.450;2024-02-28T09:24:24;8.10;99.90
29413;DHT22;16389;50.126;8.450;2024-02-28T09:26:50;8.10;99.90
29413;DHT22;16389;50.126;8.450;2024-02-28T09:29:16;8.20;99.90
29413;DHT22;16389;50.126;8.450;2024-02-28T09:31:41;7.90;99.90
29413;DHT22;16389;50.126;8.450;2024-02-28T09:34:07;7.90;99.90
29413;DHT22;16389;50.126;8.450;2024-02-28T09:36:47;7.70;99.90
29413;DHT22;16389;50.126;8.450;2024-02-28T09:39:13;7.80;99.90
29413;DHT22;16389;50.126;8.450;2024-02-28T09:41:38;7.60;99.90
29413;DHT22;16389;50.126;8.450;2024-02-28T09:44:06;7.60;99.90
29413;DHT22;16389;50.126;8.450;2024-02-28T09:46:33;7.70;99.90
29413;DHT22;16389;50.126;8.450;2024-02-28T09:49:04;8.10;99.90
29413;DHT22;16389;50.126;8.450;2024-02-28T09:51:34;8.30;99.90
29413;DHT22;16389;50.126;8.450;2024-02-28T09:54:01;8.30;99.90
29413;DHT22;16389;50.126;8.450;2024-02-28T09:56:27;8.50;99.90
29413;DHT22;16389;50.126;8.450;2024-02-28T09:58:54;8.40;99.90
29413;DHT22;16389;50.126;8.450;2024-02-28T10:01:21;8.80;99.90
29413;DHT22;16389;50.126;8.450;2024-02-28T10:03:51;9.10;99.90
29413;DHT22;16389;50.126;8.450;2024-02-28T10:06:18;9.40;99.90
29413;DHT22;16389;50.126;8.450;2024-02-28T10:08:44;10.00;99.90
29413;DHT22;16389;50.126;8.450;2024-02-28T10:11:23;10.30;99.90
29413;DHT22;16389;50.126;8.450;2024-02-28T10:13:49;10.50;99.90
29413;DHT22;16389;50.126;8.450;2024-02-28T10:16:15;10.40;99.90
29413;DHT22;16389;50.126;8.450;2024-02-28T10:18:45;10.20;99.90
29413;DHT22;16389;50.126;8.450;2024-02-28T10:21:11;10.30;99.90
29413;DHT22;16389;50.126;8.450;2024-02-28T10:23:44;10.80;99.90
29413;DHT22;16389;50.126;8.450;2024-02-28T10:26:10;11.10;99.90
29413;DHT22;16389;50.126;8.450;2024-02-28T10:28:41;11.00;99.90
29413;DHT22;16389;50.126;8.450;2024-02-28T10:31:09;11.00;99.90
29413;DHT22;16389;50.126;8.450;2024-02-28T10:33:36;11.40;99.90
29413;DHT22;16389;50.126;8.450;2024-02-28T10:36:05;11.70;99.90
29413;DHT22;16389;50.126;8.450;2024-02-28T10:38:31;11.90;99.90
29413;DHT22;16389;50.126;8.450;2024-02-28T10:41:01;12.30;99.90
29413;DHT22;16389;50.126;8.450;2024-02-28T10:43:31;12.60;99.90
29413;DHT22;16389;50.126;8.450;2024-02-28T10:45:59;12.80;99.90
29413;DHT22;16389;50.126;8.450;2024-02-28T10:48:26;13.00;99.90
29413;DHT22;16389;50.126;8.450;2024-02-28T10:50:52;13.20;99.90
29413;DHT22;16389;50.126;8.450;2024-02-28T10:53:23;13.40;99.90
29413;DHT22;16389;50.126;8.450;2024-02-28T10:55:55;13.90;99.90
29413;DHT22;16389;50.126;8.450;2024-02-28T10:58:24;14.60;99.90
29413;DHT22;16389;50.126;8.450;2024-02-28T11:00:52;15.10;99.90
29413;DHT22;16389;50.126;8.450;2024-02-28T11:03:18;15.70;99.20
29413;DHT22;16389;50.126;8.450;2024-02-28T11:05:44;16.10;97.30
29413;DHT22;16389;50.126;8.450;2024-02-28T11:08:21;16.40;95.30
29413;DHT22;16389;50.126;8.450;2024-02-28T11:10:54;17.00;93.80
29413;DHT22;16389;50.126;8.450;2024-02-28T11:13:27;17.40;92.60
29413;DHT22;16389;50.126;8.450;2024-02-28T11:15:53;18.00;90.90
29413;DHT22;16389;50.126;8.450;2024-02-28T11:18:20;18.50;90.10
29413;DHT22;16389;50.126;8.450;2024-02-28T11:20:46;19.00;88.10
29413;DHT22;16389;50.126;8.450;2024-02-28T11:23:13;19.20;84.80
29413;DHT22;16389;50.126;8.450;2024-02-28T11:25:40;19.70;83.30
29413;DHT22;16389;50.126;8.450;2024-02-28T11:28:06;20.20;81.70
29413;DHT22;16389;50.126;8.450;2024-02-28T11:30:32;20.40;79.50
29413;DHT22;16389;50.126;8.450;2024-02-28T11:32:58;21.00;76.50
29413;DHT22;16389;50.126;8.450;2024-02-28T11:35:27;21.00;75.40
29413;DHT22;16389;50.126;8.450;2024-02-28T11:37:54;21.40;75.00
29413;DHT22;16389;50.126;8.450;2024-02-28T11:40:25;22.30;72.50
29413;DHT22;16389;50.126;8.450;2024-02-28T11:42:56;22.80;69.70
29413;DHT22;16389;50.126;8.450;2024-02-28T11:45:23;23.60;67.00
29413;DHT22;16389;50.126;8.450;2024-02-28T11:47:48;23.80;65.00
29413;DHT22;16389;50.126;8.450;2024-02-28T11:50:14;23.80;63.90
29413;DHT22;16389;50.126;8.450;2024-02-28T11:52:44;24.30;62.50
29413;DHT22;16389;50.126;8.450;2024-02-28T11:55:10;24.70;61.00
29413;DHT22;16389;50.126;8.450;2024-02-28T11:57:37;25.30;60.10
29413;DHT22;16389;50.126;8.450;2024-02-28T12:00:12;25.40;58.90
29413;DHT22;16389;50.126;8.450;2024-02-28T12:02:40;25.10;58.10
29413;DHT22;16389;50.126;8.450;2024-02-28T12:05:06;25.60;58.00
29413;DHT22;16389;50.126;8.450;2024-02-28T12:07:32;25.80;57.10
29413;DHT22;16389;50.126;8.450;2024-02-28T12:09:59;26.40;56.40
29413;DHT22;16389;50.126;8.450;2024-02-28T12:12:24;26.50;55.60
29413;DHT22;16389;50.126;8.450;2024-02-28T12:14:52;27.10;54.80
29413;DHT22;16389;50.126;8.450;2024-02-28T12:17:18;27.40;53.90
29413;DHT22;16389;50.126;8.450;2024-02-28T12:19:44;27.30;52.90
29413;DHT22;16389;50.126;8.450;2024-02-28T12:22:10;27.20;53.10
29413;DHT22;16389;50.126;8.450;2024-02-28T12:24:36;27.40;53.00
29413;DHT22;16389;50.126;8.450;2024-02-28T12:27:02;26.80;52.60
29413;DHT22;16389;50.126;8.450;2024-02-28T12:29:27;26.80;53.00
29413;DHT22;16389;50.126;8.450;2024-02-28T12:31:53;26.70;52.40
29413;DHT22;16389;50.126;8.450;2024-02-28T12:34:18;26.60;52.40
29413;DHT22;16389;50.126;8.450;2024-02-28T12:36:44;26.10;53.40
29413;DHT22;16389;50.126;8.450;2024-02-28T12:39:10;25.10;54.20
29413;DHT22;16389;50.126;8.450;2024-02-28T12:41:38;23.50;56.50
29413;DHT22;16389;50.126;8.450;2024-02-28T12:44:05;21.70;59.30
29413;DHT22;16389;50.126;8.450;2024-02-28T12:46:31;20.10;62.50
29413;DHT22;16389;50.126;8.450;2024-02-28T12:48:57;18.90;66.50
29413;DHT22;16389;50.126;8.450;2024-02-28T12:51:42;17.60;69.90
29413;DHT22;16389;50.126;8.450;2024-02-28T12:54:10;16.60;73.40
29413;DHT22;16389;50.126;8.450;2024-02-28T12:56:39;15.60;77.40
29413;DHT22;16389;50.126;8.450;2024-02-28T12:59:06;15.00;79.90
29413;DHT22;16389;50.126;8.450;2024-02-28T13:01:34;14.70;83.30
29413;DHT22;16389;50.126;8.450;2024-02-28T13:04:00;14.30;85.50
29413;DHT22;16389;50.126;8.450;2024-02-28T13:06:27;14.10;87.90
29413;DHT22;16389;50.126;8.450;2024-02-28T13:08:52;13.90;90.40
29413;DHT22;16389;50.126;8.450;2024-02-28T13:11:22;13.90;90.60
29413;DHT22;16389;50.126;8.450;2024-02-28T13:13:48;13.60;91.50
29413;DHT22;16389;50.126;8.450;2024-02-28T13:16:18;13.40;91.90
29413;DHT22;16389;50.126;8.450;2024-02-28T13:18:44;13.20;92.40
29413;DHT22;16389;50.126;8.450;2024-02-28T13:21:10;13.10;93.30
29413;DHT22;16389;50.126;8.450;2024-02-28T13:23:36;13.20;94.20
29413;DHT22;16389;50.126;8.450;2024-02-28T13:26:05;13.30;94.40
29413;DHT22;16389;50.126;8.450;2024-02-28T13:28:31;13.10;94.30
29413;DHT22;16389;50.126;8.450;2024-02-28T13:31:01;12.90;93.90
29413;DHT22;16389;50.126;8.450;2024-02-28T13:33:27;12.80;95.00
29413;DHT22;16389;50.126;8.450;2024-02-28T13:35:53;12.80;95.40
29413;DHT22;16389;50.126;8.450;2024-02-28T13:38:20;12.80;93.70
29413;DHT22;16389;50.126;8.450;2024-02-28T13:40:49;12.80;93.00
29413;DHT22;16389;50.126;8.450;2024-02-28T13:43:15;12.70;92.60
29413;DHT22;16389;50.126;8.450;2024-02-28T13:45:50;12.60;93.20
29413;DHT22;16389;50.126;8.450;2024-02-28T13:48:24;12.60;93.10
29413;DHT22;16389;50.126;8.450;2024-02-28T13:50:51;12.50;94.70
29413;DHT22;16389;50.126;8.450;2024-02-28T13:53:16;12.50;95.70
29413;DHT22;16389;50.126;8.450;2024-02-28T13:55:42;12.60;96.30
29413;DHT22;16389;50.126;8.450;2024-02-28T13:58:09;12.60;96.10
29413;DHT22;16389;50.126;8.450;2024-02-28T14:00:36;12.60;95.10
29413;DHT22;16389;50.126;8.450;2024-02-28T14:03:02;12.60;95.40
29413;DHT22;16389;50.126;8.450;2024-02-28T14:05:28;12.60;94.80
29413;DHT22;16389;50.126;8.450;2024-02-28T14:07:54;12.70;93.30
29413;DHT22;16389;50.126;8.450;2024-02-28T14:10:20;12.80;94.10
29413;DHT22;16389;50.126;8.450;2024-02-28T14:12:48;13.00;92.60
29413;DHT22;16389;50.126;8.450;2024-02-28T14:15:14;13.00;92.50
29413;DHT22;16389;50.126;8.450;2024-02-28T14:17:40;13.10;93.00
29413;DHT22;16389;50.126;8.450;2024-02-28T14:20:06;13.30;92.20
29413;DHT22;16389;50.126;8.450;2024-02-28T14:22:32;13.40;90.90
29413;DHT22;16389;50.126;8.450;2024-02-28T14:24:59;13.30;90.80
29413;DHT22;16389;50.126;8.450;2024-02-28T14:27:25;13.30;90.10
29413;DHT22;16389;50.126;8.450;2024-02-28T14:29:55;13.20;90.70
29413;DHT22;16389;50.126;8.450;2024-02-28T14:32:21;13.10;91.10
29413;DHT22;16389;50.126;8.450;2024-02-28T14:34:48;13.10;91.60
29413;DHT22;16389;50.126;8.450;2024-02-28T14:37:14;13.20;91.60
29413;DHT22;16389;50.126;8.450;2024-02-28T14:39:41;13.00;90.90
29413;DHT22;16389;50.126;8.450;2024-02-28T14:42:06;13.10;91.90
29413;DHT22;16389;50.126;8.450;2024-02-28T14:44:34;13.00;92.20
29413;DHT22;16389;50.126;8.450;2024-02-28T14:46:59;13.10;92.50
29413;DHT22;16389;50.126;8.450;2024-02-28T14:49:25;13.10;92.30
29413;DHT22;16389;50.126;8.450;2024-02-28T14:51:52;13.10;92.10
29413;DHT22;16389;50.126;8.450;2024-02-28T14:54:18;13.00;92.10
29413;DHT22;16389;50.126;8.450;2024-02-28T14:56:48;13.10;92.40
29413;DHT22;16389;50.126;8.450;2024-02-28T14:59:14;13.30;93.00
29413;DHT22;16389;50.126;8.450;2024-02-28T15:01:39;13.30;92.70
29413;DHT22;16389;50.126;8.450;2024-02-28T15:04:05;13.20;91.80
29413;DHT22;16389;50.126;8.450;2024-02-28T15:06:30;13.00;91.30
29413;DHT22;16389;50.126;8.450;2024-02-28T15:08:56;13.30;91.70
29413;DHT22;16389;50.126;8.450;2024-02-28T15:11:22;13.30;91.40
29413;DHT22;16389;50.126;8.450;2024-02-28T15:13:48;13.30;91.20
29413;DHT22;16389;50.126;8.450;2024-02-28T15:16:13;13.40;91.50
29413;DHT22;16389;50.126;8.450;2024-02-28T15:18:39;13.40;92.00
29413;DHT22;16389;50.126;8.450;2024-02-28T15:21:06;13.20;91.00
29413;DHT22;16389;50.126;8.450;2024-02-28T15:23:32;13.10;91.10
29413;DHT22;16389;50.126;8.450;2024-02-28T15:25:58;13.00;90.70
29413;DHT22;16389;50.126;8.450;2024-02-28T15:28:24;12.80;91.80
29413;DHT22;16389;50.126;8.450;2024-02-28T15:30:52;12.80;90.90
29413;DHT22;16389;50.126;8.450;2024-02-28T15:33:19;12.80;91.50
29413;DHT22;16389;50.126;8.450;2024-02-28T15:35:44;12.70;91.10
29413;DHT22;16389;50.126;8.450;2024-02-28T15:38:10;12.70;92.60